createdAt,value
2018-06-18T00:01:28.292Z,5.10
2018-06-18T00:03:56.480Z,4.93
2018-06-18T00:06:24.667Z,5.03
2018-06-18T00:08:52.874Z,4.57
2018-06-18T00:11:21.071Z,5.00
2018-06-18T00:13:49.231Z,4.87
2018-06-18T00:16:17.440Z,6.43
2018-06-18T00:18:45.607Z,6.60
2018-06-18T00:21:13.840Z,4.10
2018-06-18T00:23:42.033Z,6.40
2018-06-18T00:26:10.233Z,5.20
2018-06-18T00:28:38.396Z,5.27
2018-06-18T00:31:07.505Z,6.00
2018-06-18T00:33:35.692Z,4.40
2018-06-18T00:36:04.867Z,4.70
2018-06-18T00:38:33.068Z,5.10
2018-06-18T00:41:01.624Z,4.73
2018-06-18T00:43:29.811Z,4.43
2018-06-18T00:45:58.005Z,6.40
2018-06-18T00:48:26.170Z,6.80
2018-06-18T00:50:54.528Z,4.97
2018-06-18T00:53:22.728Z,4.23
2018-06-18T00:56:03.186Z,4.20
2018-06-18T00:58:31.358Z,4.17
2018-06-18T01:01:00.455Z,5.00
2018-06-18T01:03:28.678Z,5.00
2018-06-18T01:05:56.847Z,4.97
2018-06-18T01:08:25.086Z,4.40
2018-06-18T01:10:53.256Z,4.03
2018-06-18T01:13:21.459Z,4.73
2018-06-18T01:15:49.611Z,6.73
2018-06-18T01:18:17.815Z,4.03
2018-06-18T01:20:45.967Z,4.80
2018-06-18T01:23:59.343Z,5.73
2018-06-18T01:26:27.523Z,4.73
2018-06-18T01:28:55.676Z,4.20
2018-06-18T01:31:23.916Z,4.33
2018-06-18T01:33:53.983Z,4.90
2018-06-18T01:39:08.424Z,5.17
2018-06-18T01:41:36.573Z,4.33
2018-06-18T01:44:04.760Z,5.80
2018-06-18T01:46:32.956Z,4.80
2018-06-18T01:49:01.148Z,6.10
2018-06-18T01:51:29.337Z,4.50
2018-06-18T01:53:57.490Z,5.23
2018-06-18T01:56:25.696Z,4.20
2018-06-18T01:58:53.869Z,4.53
2018-06-18T02:01:22.086Z,4.40
2018-06-18T02:03:50.279Z,8.70
2018-06-18T02:06:18.440Z,4.97
2018-06-18T02:08:46.383Z,4.57
2018-06-18T02:11:15.300Z,4.80
2018-06-18T02:13:43.483Z,4.67
2018-06-18T02:16:11.674Z,5.67
2018-06-18T02:18:39.595Z,5.57
2018-06-18T02:21:07.821Z,5.23
2018-06-18T02:23:36.017Z,4.90
2018-06-18T02:26:04.184Z,4.87
2018-06-18T02:28:37.669Z,6.87
2018-06-18T02:31:11.351Z,5.33
2018-06-18T02:33:44.945Z,4.90
2018-06-18T02:36:18.381Z,7.17
2018-06-18T02:38:51.662Z,5.27
2018-06-18T02:41:19.885Z,5.20
2018-06-18T02:43:48.056Z,7.83
2018-06-18T02:46:16.215Z,6.73
2018-06-18T02:48:44.410Z,5.30
2018-06-18T02:51:12.595Z,5.27
2018-06-18T02:53:40.750Z,5.80
2018-06-18T02:56:08.685Z,7.47
2018-06-18T02:58:36.867Z,5.83
2018-06-18T03:01:05.050Z,5.50
2018-06-18T03:03:33.225Z,6.53
2018-06-18T03:06:01.379Z,5.87
2018-06-18T03:08:29.544Z,5.93
2018-06-18T03:10:57.715Z,5.90
2018-06-18T03:13:25.894Z,5.60
2018-06-18T03:15:54.055Z,5.83
2018-06-18T03:18:27.639Z,6.47
2018-06-18T03:21:01.255Z,6.37
2018-06-18T03:23:34.621Z,6.80
2018-06-18T03:26:08.093Z,6.20
2018-06-18T03:28:41.982Z,6.33
2018-06-18T03:31:10.156Z,5.97
2018-06-18T03:33:38.377Z,5.40
2018-06-18T03:36:07.524Z,5.80
2018-06-18T03:38:35.695Z,6.30
2018-06-18T03:41:03.852Z,5.70
2018-06-18T03:43:33.972Z,5.60
2018-06-18T03:46:02.195Z,5.87
2018-06-18T03:48:30.360Z,5.77
2018-06-18T03:50:58.544Z,6.00
2018-06-18T03:53:26.719Z,6.13
2018-06-18T03:55:58.760Z,8.10
2018-06-18T03:58:26.972Z,6.20
2018-06-18T04:02:09.991Z,6.80
2018-06-18T04:04:51.620Z,5.93
2018-06-18T04:07:26.261Z,6.23
2018-06-18T04:10:00.243Z,6.60
2018-06-18T04:12:28.441Z,5.83
2018-06-18T04:14:56.743Z,6.37
2018-06-18T04:17:25.056Z,6.90
2018-06-18T04:19:53.212Z,6.57
2018-06-18T04:22:21.393Z,5.80
2018-06-18T04:24:49.623Z,6.07
2018-06-18T04:27:17.567Z,7.63
2018-06-18T04:29:45.748Z,6.37
2018-06-18T04:32:14.268Z,6.53
2018-06-18T04:34:45.461Z,7.00
2018-06-18T04:37:13.644Z,6.73
2018-06-18T04:39:41.861Z,6.57
2018-06-18T04:42:15.405Z,6.13
2018-06-18T04:44:48.995Z,6.47
2018-06-18T04:47:22.684Z,7.93
2018-06-18T04:49:56.173Z,7.17
2018-06-18T04:52:24.360Z,7.20
2018-06-18T04:54:52.659Z,7.20
2018-06-18T04:57:20.890Z,6.63
2018-06-18T05:00:02.967Z,6.10
2018-06-18T05:02:31.151Z,6.90
2018-06-18T05:04:59.341Z,6.50
2018-06-18T05:07:27.537Z,7.27
2018-06-18T05:09:58.148Z,6.20
2018-06-18T05:12:26.318Z,6.27
2018-06-18T05:14:54.470Z,7.70
2018-06-18T05:17:22.682Z,7.50
2018-06-18T05:19:50.621Z,8.20
2018-06-18T05:22:20.884Z,6.20
2018-06-18T05:24:51.304Z,7.90
2018-06-18T05:27:21.406Z,5.90
2018-06-18T05:29:49.591Z,5.80
2018-06-18T05:32:17.771Z,6.63
2018-06-18T05:34:47.220Z,6.60
2018-06-18T05:37:18.786Z,7.07
2018-06-18T05:39:47.045Z,6.73
2018-06-18T05:42:15.246Z,7.40
2018-06-18T05:44:43.433Z,5.90
2018-06-18T05:47:11.603Z,6.70
2018-06-18T05:49:39.787Z,6.03
2018-06-18T05:52:07.954Z,7.83
2018-06-18T05:54:36.138Z,6.97
2018-06-18T05:57:04.390Z,6.27
2018-06-18T05:59:32.579Z,6.53
2018-06-18T06:02:00.778Z,6.63
2018-06-18T06:04:28.966Z,7.60
2018-06-18T06:06:57.138Z,6.40
2018-06-18T06:09:25.348Z,7.80
2018-06-18T06:11:53.564Z,8.43
2018-06-18T06:14:21.744Z,7.23
2018-06-18T06:16:49.983Z,8.00
2018-06-18T06:19:18.537Z,6.23
2018-06-18T06:21:46.720Z,5.73
2018-06-18T06:24:14.934Z,10.80
2018-06-18T06:26:43.112Z,5.70
2018-06-18T06:29:11.319Z,5.60
2018-06-18T06:31:39.484Z,6.37
2018-06-18T06:34:07.680Z,6.17
2018-06-18T06:36:35.858Z,5.17
2018-06-18T06:39:05.931Z,6.07
2018-06-18T06:41:34.162Z,5.20
2018-06-18T06:44:02.454Z,4.87
2018-06-18T06:46:30.628Z,8.20
2018-06-18T06:48:58.817Z,6.73
2018-06-18T06:51:26.996Z,6.63
2018-06-18T06:53:55.181Z,5.30
2018-06-18T06:56:23.357Z,5.67
2018-06-18T06:58:51.548Z,4.93
2018-06-18T07:01:19.843Z,5.20
2018-06-18T07:03:48.009Z,5.47
2018-06-18T07:06:16.268Z,5.67
2018-06-18T07:08:44.460Z,6.10
2018-06-18T07:11:12.656Z,4.27
2018-06-18T07:13:40.865Z,6.53
2018-06-18T07:16:09.022Z,3.83
2018-06-18T07:18:37.196Z,4.00
2018-06-18T07:21:05.383Z,6.27
2018-06-18T07:23:33.583Z,4.90
2018-06-18T07:26:01.808Z,3.90
2018-06-18T07:28:30.845Z,5.13
2018-06-18T07:30:59.083Z,4.70
2018-06-18T07:33:27.190Z,4.43
2018-06-18T07:35:55.410Z,6.03
2018-06-18T07:38:23.781Z,3.67
2018-06-18T07:40:51.966Z,6.70
2018-06-18T07:43:20.148Z,5.63
2018-06-18T07:45:48.301Z,4.53
2018-06-18T07:48:16.533Z,4.63
2018-06-18T07:50:44.712Z,4.10
2018-06-18T07:53:12.896Z,4.37
2018-06-18T07:55:41.383Z,5.00
2018-06-18T07:58:09.554Z,6.10
2018-06-18T08:00:37.764Z,4.07
2018-06-18T08:03:06.229Z,4.00
2018-06-18T08:05:34.418Z,5.47
2018-06-18T08:08:02.330Z,3.50
2018-06-18T08:10:30.526Z,3.23
2018-06-18T08:12:58.774Z,5.60
2018-06-18T08:15:26.977Z,4.50
2018-06-18T08:17:55.181Z,4.23
2018-06-18T08:20:23.371Z,4.77
2018-06-18T08:22:51.533Z,5.53
2018-06-18T08:25:19.720Z,4.50
2018-06-18T08:27:47.919Z,4.97
2018-06-18T08:30:16.084Z,4.90
2018-06-18T08:32:44.292Z,5.70
2018-06-18T08:35:12.466Z,4.67
2018-06-18T08:37:40.663Z,5.50
2018-06-18T08:40:08.826Z,5.47
2018-06-18T08:42:37.008Z,4.33
2018-06-18T08:45:05.250Z,4.50
2018-06-18T08:47:33.483Z,2.45
2018-06-18T08:50:07.012Z,4.25
2018-06-18T08:52:40.651Z,4.60
2018-06-18T08:55:14.192Z,3.60
2018-06-18T08:57:47.715Z,3.42
2018-06-18T09:00:21.281Z,3.98
2018-06-18T09:03:22.215Z,4.17
2018-06-18T09:05:56.215Z,5.35
2018-06-18T09:08:31.515Z,4.25
2018-06-18T09:11:00.344Z,5.97
2018-06-18T09:13:28.546Z,4.62
2018-06-18T09:15:56.708Z,2.90
2018-06-18T09:18:25.004Z,5.42
2018-06-18T09:20:53.174Z,5.25
2018-06-18T09:23:21.348Z,4.25
2018-06-18T09:25:55.078Z,4.65
2018-06-18T09:28:23.251Z,5.03
2018-06-18T09:30:51.423Z,4.40
2018-06-18T09:33:19.597Z,3.52
2018-06-18T09:35:48.873Z,4.03
2018-06-18T09:38:16.997Z,4.55
2018-06-18T09:40:45.186Z,6.75
2018-06-18T09:43:13.343Z,4.12
2018-06-18T09:45:41.517Z,3.98
2018-06-18T09:48:09.830Z,5.10
2018-06-18T09:50:43.404Z,4.33
2018-06-18T09:53:16.942Z,5.65
2018-06-18T09:55:50.615Z,3.42
2018-06-18T09:58:24.271Z,4.83
2018-06-18T10:01:13.942Z,5.67
2018-06-18T10:03:41.873Z,4.33
2018-06-18T10:06:10.032Z,5.12
2018-06-18T10:08:38.266Z,3.70
2018-06-18T10:11:06.376Z,2.95
2018-06-18T10:13:34.580Z,4.05
2018-06-18T10:16:02.986Z,5.22
2018-06-18T10:18:31.140Z,4.70
2018-06-18T10:20:59.297Z,4.67
2018-06-18T10:23:27.489Z,2.83
2018-06-18T10:25:55.638Z,7.20
2018-06-18T10:28:23.803Z,4.90
2018-06-18T10:30:52.046Z,4.75
2018-06-18T10:33:25.681Z,4.15
2018-06-18T10:35:59.296Z,4.33
2018-06-18T10:38:32.968Z,5.05
2018-06-18T10:41:06.450Z,3.20
2018-06-18T10:43:36.398Z,3.87
2018-06-18T10:46:04.581Z,4.53
2018-06-18T10:48:32.797Z,3.65
2018-06-18T10:51:01.650Z,5.55
2018-06-18T10:53:29.994Z,3.90
2018-06-18T10:55:58.206Z,3.15
2018-06-18T10:58:26.476Z,3.40
2018-06-18T11:01:01.028Z,4.90
2018-06-18T11:03:29.179Z,3.17
2018-06-18T11:06:02.869Z,3.30
2018-06-18T11:08:31.050Z,5.90
2018-06-18T11:10:59.225Z,4.05
2018-06-18T11:13:27.678Z,4.00
2018-06-18T11:15:56.388Z,5.10
2018-06-18T11:18:30.011Z,4.05
2018-06-18T11:21:03.677Z,3.95
2018-06-18T11:23:37.114Z,3.80
2018-06-18T11:26:10.680Z,5.03
2018-06-18T11:28:38.871Z,3.05
2018-06-18T11:31:07.135Z,3.67
2018-06-18T11:33:35.272Z,3.70
2018-06-18T11:36:03.437Z,3.62
2018-06-18T11:38:31.604Z,2.58
2018-06-18T11:40:59.809Z,2.50
2018-06-18T11:43:28.099Z,2.70
2018-06-18T11:45:56.389Z,4.37
2018-06-18T11:48:27.649Z,2.55
2018-06-18T11:50:55.809Z,3.72
2018-06-18T11:53:23.984Z,3.12
2018-06-18T11:55:52.164Z,3.40
2018-06-18T11:58:25.581Z,4.37
2018-06-18T12:00:59.090Z,3.83
2018-06-18T12:03:32.464Z,2.87
2018-06-18T12:06:06.146Z,3.90
2018-06-18T12:08:39.760Z,4.50
2018-06-18T12:11:07.946Z,4.95
2018-06-18T12:13:36.112Z,3.55
2018-06-18T12:16:04.288Z,3.95
2018-06-18T12:18:32.456Z,2.87
2018-06-18T12:21:00.749Z,2.72
2018-06-18T12:23:28.948Z,2.67
2018-06-18T12:25:57.152Z,3.30
2018-06-18T12:28:25.366Z,2.77
2018-06-18T12:30:53.519Z,3.87
2018-06-18T12:33:21.771Z,3.67
2018-06-18T12:35:49.963Z,3.52
2018-06-18T12:38:17.880Z,2.52
2018-06-18T12:40:46.295Z,4.92
2018-06-18T12:43:17.203Z,4.33
2018-06-18T12:45:50.685Z,3.83
2018-06-18T12:48:24.267Z,3.75
2018-06-18T12:50:57.872Z,3.40
2018-06-18T12:53:31.357Z,3.20
2018-06-18T12:56:04.949Z,2.10
2018-06-18T12:58:33.435Z,2.33
2018-06-18T13:01:01.903Z,4.20
2018-06-18T13:03:30.411Z,2.87
2018-06-18T13:05:58.667Z,2.10
2018-06-18T13:08:26.848Z,2.65
2018-06-18T13:10:55.009Z,3.15
2018-06-18T13:13:23.824Z,2.55
2018-06-18T13:15:52.000Z,2.83
2018-06-18T13:18:20.160Z,2.15
2018-06-18T13:20:48.352Z,3.60
2018-06-18T13:23:16.604Z,4.58
2018-06-18T13:25:44.876Z,3.17
2018-06-18T13:28:15.005Z,4.35
2018-06-18T13:30:43.174Z,2.30
2018-06-18T13:33:11.113Z,3.17
2018-06-18T13:35:39.354Z,2.52
2018-06-18T13:38:12.839Z,2.20
2018-06-18T13:40:46.493Z,3.15
2018-06-18T13:43:21.051Z,3.05
2018-06-18T13:45:58.463Z,3.17
2018-06-18T13:48:32.155Z,3.17
2018-06-18T13:51:00.121Z,3.67
2018-06-18T13:53:28.320Z,3.58
2018-06-18T13:55:56.822Z,3.65
2018-06-18T13:58:24.989Z,3.83
2018-06-18T14:00:53.284Z,2.60
2018-06-18T14:03:21.473Z,2.02
2018-06-18T14:05:49.664Z,3.58
2018-06-18T14:08:18.484Z,2.52
2018-06-18T14:10:46.675Z,2.35
2018-06-18T14:13:14.803Z,2.90
2018-06-18T14:15:42.959Z,4.03
2018-06-18T14:18:11.205Z,2.02
2018-06-18T14:20:39.401Z,3.87
2018-06-18T14:23:07.760Z,3.17
2018-06-18T14:25:35.936Z,3.92
2018-06-18T14:28:04.170Z,3.08
2018-06-18T14:30:37.818Z,2.85
2018-06-18T14:33:11.960Z,3.92
2018-06-18T14:35:45.827Z,2.20
2018-06-18T14:38:19.479Z,2.62
2018-06-18T14:40:47.673Z,3.52
2018-06-18T14:43:15.820Z,3.85
2018-06-18T14:45:43.851Z,3.25
2018-06-18T14:48:13.089Z,3.83
2018-06-18T14:50:41.233Z,3.87
2018-06-18T14:53:09.534Z,3.08
2018-06-18T14:55:37.730Z,3.05
2018-06-18T14:58:05.875Z,2.42
2018-06-18T15:00:34.943Z,3.92
2018-06-18T15:03:03.163Z,2.33
2018-06-18T15:05:40.320Z,4.62
2018-06-18T15:08:09.143Z,4.12
2018-06-18T15:10:42.700Z,2.98
2018-06-18T15:13:12.779Z,3.90
2018-06-18T15:15:47.361Z,4.45
2018-06-18T15:18:15.701Z,3.55
2018-06-18T15:20:44.216Z,3.42
2018-06-18T15:23:12.508Z,4.33
2018-06-18T15:25:43.676Z,4.22
2018-06-18T15:28:12.047Z,3.02
2018-06-18T15:30:40.325Z,4.53
2018-06-18T15:33:08.622Z,5.05
2018-06-18T15:35:36.817Z,2.98
2018-06-18T15:38:05.129Z,4.97
2018-06-18T15:40:33.424Z,2.52
2018-06-18T15:43:01.614Z,3.75
2018-06-18T15:45:29.844Z,6.90
2018-06-18T15:47:58.007Z,3.08
2018-06-18T15:50:26.461Z,3.05
2018-06-18T15:52:55.279Z,3.52
2018-06-18T15:55:23.504Z,3.85
2018-06-18T15:57:51.745Z,4.75
2018-06-18T16:00:20.030Z,3.67
2018-06-18T16:02:48.260Z,4.10
2018-06-18T16:05:16.419Z,7.95
2018-06-18T16:07:44.691Z,5.92
2018-06-18T16:10:12.867Z,3.52
2018-06-18T16:12:41.807Z,5.25
2018-06-18T16:15:10.285Z,3.55
2018-06-18T16:17:38.469Z,3.90
2018-06-18T16:20:06.645Z,4.67
2018-06-18T16:22:34.908Z,5.83
2018-06-18T16:25:03.657Z,3.98
2018-06-18T16:27:31.801Z,2.92
2018-06-18T16:29:59.973Z,6.85
2018-06-18T16:32:28.141Z,4.62
2018-06-18T16:34:56.382Z,2.95
2018-06-18T16:37:24.576Z,4.85
2018-06-18T16:39:53.047Z,5.03
2018-06-18T16:42:22.113Z,6.72
2018-06-18T16:44:50.299Z,3.40
2018-06-18T16:47:18.253Z,4.97
2018-06-18T16:49:46.423Z,4.25
2018-06-18T16:52:14.707Z,4.50
2018-06-18T16:54:43.204Z,3.95
2018-06-18T16:57:11.397Z,4.35
2018-06-18T16:59:39.612Z,4.97
2018-06-18T17:02:07.779Z,4.30
2018-06-18T17:04:37.245Z,6.08
2018-06-18T17:07:05.486Z,3.85
2018-06-18T17:09:33.752Z,4.15
2018-06-18T17:12:02.141Z,4.75
2018-06-18T17:14:30.335Z,4.53
2018-06-18T17:16:58.492Z,4.70
2018-06-18T17:19:26.664Z,3.45
2018-06-18T17:21:54.872Z,5.55
2018-06-18T17:24:23.062Z,4.50
2018-06-18T17:26:51.292Z,4.17
2018-06-18T17:29:19.527Z,4.50
2018-06-18T17:31:47.777Z,4.67
2018-06-18T17:34:16.046Z,8.30
2018-06-18T17:36:44.192Z,5.25
2018-06-18T17:39:13.199Z,4.70
2018-06-18T17:41:41.669Z,4.17
2018-06-18T17:44:09.616Z,5.25
2018-06-18T17:46:37.984Z,4.10
2018-06-18T17:49:06.459Z,3.80
2018-06-18T17:51:34.662Z,3.30
2018-06-18T17:54:02.980Z,3.40
2018-06-18T17:56:31.147Z,4.27
2018-06-18T17:58:59.454Z,4.23
2018-06-18T18:01:28.766Z,4.97
2018-06-18T18:03:56.936Z,4.07
2018-06-18T18:06:25.170Z,5.57
2018-06-18T18:08:53.381Z,4.97
2018-06-18T18:11:21.565Z,3.80
2018-06-18T18:13:49.817Z,4.50
2018-06-18T18:16:17.962Z,5.10
2018-06-18T18:18:46.362Z,4.43
2018-06-18T18:21:14.913Z,5.23
2018-06-18T18:23:47.303Z,3.97
2018-06-18T18:26:15.660Z,4.83
2018-06-18T18:28:43.890Z,5.03
2018-06-18T18:31:12.014Z,3.17
2018-06-18T18:33:42.175Z,2.80
2018-06-18T18:36:10.387Z,5.13
2018-06-18T18:38:38.608Z,3.10
2018-06-18T18:41:06.778Z,3.83
2018-06-18T18:43:35.572Z,5.27
2018-06-18T18:46:03.712Z,3.93
2018-06-18T18:48:31.890Z,3.90
2018-06-18T18:51:00.065Z,6.40
2018-06-18T18:53:28.409Z,5.83
2018-06-18T18:56:08.165Z,3.90
2018-06-18T18:59:43.093Z,4.77
2018-06-18T19:02:11.316Z,3.80
2018-06-18T19:04:58.669Z,5.60
2018-06-18T19:07:37.084Z,5.10
2018-06-18T19:10:13.866Z,5.00
2018-06-18T19:12:42.057Z,5.77
2018-06-18T19:15:10.263Z,5.13
2018-06-18T19:17:38.776Z,6.97
2018-06-18T19:20:12.917Z,4.37
2018-06-18T19:22:41.251Z,4.57
2018-06-18T19:25:09.573Z,4.07
2018-06-18T19:27:37.770Z,4.03
2018-06-18T19:30:07.353Z,4.33
2018-06-18T19:32:35.567Z,5.53
2018-06-18T19:35:03.848Z,5.70
2018-06-18T19:37:32.063Z,8.20
2018-06-18T19:40:00.264Z,4.37
2018-06-18T19:42:28.542Z,6.23
2018-06-18T19:44:56.513Z,5.40
2018-06-18T19:47:35.782Z,4.33
2018-06-18T19:50:04.099Z,5.67
2018-06-18T19:52:32.654Z,4.53
2018-06-18T19:55:04.775Z,5.40
2018-06-18T19:57:33.036Z,4.23
2018-06-18T20:00:01.208Z,3.57
2018-06-18T20:02:29.411Z,5.07
2018-06-18T20:04:57.752Z,5.43
2018-06-18T20:07:26.599Z,5.53
2018-06-18T20:09:54.792Z,4.77
2018-06-18T20:12:23.104Z,5.30
2018-06-18T20:14:51.411Z,4.50
2018-06-18T20:17:19.583Z,4.87
2018-06-18T20:19:47.990Z,6.40
2018-06-18T20:22:16.201Z,4.77
2018-06-18T20:24:45.248Z,5.00
2018-06-18T20:27:13.457Z,5.13
2018-06-18T20:29:42.443Z,5.37
2018-06-18T20:32:10.624Z,4.50
2018-06-18T20:34:39.311Z,4.50
2018-06-18T20:37:07.494Z,6.00
2018-06-18T20:39:35.729Z,4.70
2018-06-18T20:42:03.948Z,4.90
2018-06-18T20:44:32.154Z,4.97
2018-06-18T20:47:00.410Z,5.13
2018-06-18T20:49:28.588Z,6.43
2018-06-18T20:51:56.881Z,5.37
2018-06-18T20:54:25.040Z,4.97
2018-06-18T20:56:53.243Z,5.47
2018-06-18T20:59:21.491Z,5.50
2018-06-18T21:01:49.708Z,5.10
2018-06-18T21:04:17.951Z,7.50
2018-06-18T21:06:46.148Z,4.87
2018-06-18T21:09:14.344Z,4.40
2018-06-18T21:11:42.506Z,5.33
2018-06-18T21:14:11.234Z,5.50
2018-06-18T21:16:41.760Z,6.63
2018-06-18T21:19:09.928Z,5.93
2018-06-18T21:21:38.179Z,6.43
2018-06-18T21:24:06.397Z,5.43
2018-06-18T21:26:34.661Z,8.77
2018-06-18T21:29:02.809Z,5.37
2018-06-18T21:31:31.240Z,5.70
2018-06-18T21:33:59.412Z,5.93
2018-06-18T21:36:27.562Z,5.83
2018-06-18T21:38:55.761Z,5.17
2018-06-18T21:41:23.900Z,6.80
2018-06-18T21:43:52.949Z,5.17
2018-06-18T21:46:21.106Z,5.80
2018-06-18T21:48:49.273Z,5.60
2018-06-18T21:51:17.438Z,6.27
2018-06-18T21:53:45.600Z,6.77
2018-06-18T21:56:13.770Z,5.77
2018-06-18T21:58:41.916Z,6.33
2018-06-18T22:01:10.089Z,6.27
2018-06-18T22:03:38.242Z,6.50
2018-06-18T22:06:06.632Z,8.00
2018-06-18T22:08:34.788Z,7.10
2018-06-18T22:11:02.978Z,7.40
2018-06-18T22:13:31.153Z,7.13
2018-06-18T22:15:59.316Z,7.13
2018-06-18T22:18:27.608Z,7.63
2018-06-18T22:20:55.765Z,6.77
2018-06-18T22:23:23.929Z,7.00
2018-06-18T22:25:52.310Z,6.83
2018-06-18T22:28:25.478Z,6.70
2018-06-18T22:30:54.406Z,7.00
2018-06-18T22:33:22.339Z,6.97
2018-06-18T22:35:50.511Z,7.80
2018-06-18T22:38:19.105Z,7.37
2018-06-18T22:40:47.299Z,6.97
2018-06-18T22:43:15.455Z,6.73
2018-06-18T22:45:43.709Z,6.87
2018-06-18T22:48:11.868Z,8.43
2018-06-18T22:50:40.044Z,7.17
2018-06-18T22:53:08.202Z,7.40
2018-06-18T22:55:36.367Z,8.30
2018-06-18T22:58:04.559Z,6.47
2018-06-18T23:00:32.718Z,8.10
2018-06-18T23:03:00.876Z,6.97
2018-06-18T23:05:29.431Z,7.30
2018-06-18T23:07:57.575Z,7.70
2018-06-18T23:10:25.777Z,7.97
2018-06-18T23:12:53.932Z,7.60
2018-06-18T23:15:22.125Z,7.90
2018-06-18T23:17:50.300Z,7.27
2018-06-18T23:20:18.495Z,8.07
2018-06-18T23:22:46.667Z,8.37
2018-06-18T23:25:14.835Z,8.20
2018-06-18T23:27:42.995Z,7.60
2018-06-18T23:30:11.194Z,7.67
2018-06-18T23:32:39.361Z,7.50
2018-06-18T23:35:07.528Z,8.23
2018-06-18T23:37:35.692Z,8.00
2018-06-18T23:40:03.859Z,9.80
2018-06-18T23:42:32.163Z,7.53
2018-06-18T23:45:00.307Z,8.33
2018-06-18T23:47:28.467Z,8.97
2018-06-18T23:49:56.727Z,9.00
2018-06-18T23:52:24.892Z,8.63
2018-06-18T23:54:53.061Z,7.73
2018-06-18T23:57:21.245Z,8.90
2018-06-18T23:59:49.581Z,8.10
